Aviation Digital Data Service (ADDS)

Output produced by METARs form (0909 UTC 18 February 2019)
found at http://www.aviationweather.gov/metar/data/
 
METAR text: OSDI 180900Z 24006KT CAVOK 10/03 Q1019
Conditions at: OSDI (DAMASCUS (CIV/MI, SY) observed 0900 UTC 18 February 2019
Temperature: 10.0°C (50°F)
Dewpoint: 3.0°C (37°F) [RH = 62%]
Pressure (altimeter): 30.09 inches Hg (1019.0 mb)
Winds: from the WSW (240 degrees) at 7 MPH (6 knots; 3.1 m/s)
Visibility: 6 or more miles (10+ km)
Ceiling: ceiling and visibility are OK
Clouds: unknown
Weather: no significant weather observed at this time

METAR text: OSDI 180800Z 16004KT CAVOK 07/03 Q1019
Conditions at: OSDI (DAMASCUS (CIV/MI, SY) observed 0800 UTC 18 February 2019
Temperature: 7.0°C (45°F)
Dewpoint: 3.0°C (37°F) [RH = 76%]
Pressure (altimeter): 30.09 inches Hg (1019.0 mb)
Winds: from the SSE (160 degrees) at 5 MPH (4 knots; 2.1 m/s)
Visibility: 6 or more miles (10+ km)
Ceiling: ceiling and visibility are OK
Clouds: unknown
Weather: no significant weather observed at this time

METAR text: OSDI 180700Z 00000KT CAVOK 05/03 Q1020
Conditions at: OSDI (DAMASCUS (CIV/MI, SY) observed 0700 UTC 18 February 2019
Temperature: 5.0°C (41°F)
Dewpoint: 3.0°C (37°F) [RH = 87%]
Pressure (altimeter): 30.12 inches Hg (1020.0 mb)
Winds: calm
Visibility: 6 or more miles (10+ km)
Ceiling: ceiling and visibility are OK
Clouds: unknown
Weather: no significant weather observed at this time

METAR text: OSDI 180600Z 01004KT CAVOK 02/01 Q1019
Conditions at: OSDI (DAMASCUS (CIV/MI, SY) observed 0600 UTC 18 February 2019
Temperature: 2.0°C (36°F)
Dewpoint: 1.0°C (34°F) [RH = 93%]
Pressure (altimeter): 30.09 inches Hg (1019.0 mb)
Winds: from the N (10 degrees) at 5 MPH (4 knots; 2.1 m/s)
Visibility: 6 or more miles (10+ km)
Ceiling: ceiling and visibility are OK
Clouds: unknown
Weather: no significant weather observed at this time

METAR text: OSDI 180500Z 28004KT CAVOK M01/M02 Q1019
Conditions at: OSDI (DAMASCUS (CIV/MI, SY) observed 0500 UTC 18 February 2019
Temperature: -1.0°C (30°F)
Dewpoint: -2.0°C (28°F) [RH = 93%]
Pressure (altimeter): 30.09 inches Hg (1019.0 mb)
Winds: from the W (280 degrees) at 5 MPH (4 knots; 2.1 m/s)
Visibility: 6 or more miles (10+ km)
Ceiling: ceiling and visibility are OK
Clouds: unknown
Weather: no significant weather observed at this time

METAR text: OSDI 180400Z 00000KT CAVOK M02/M03 Q1019
Conditions at: OSDI (DAMASCUS (CIV/MI, SY) observed 0400 UTC 18 February 2019
Temperature: -2.0°C (28°F)
Dewpoint: -3.0°C (27°F) [RH = 93%]
Pressure (altimeter): 30.09 inches Hg (1019.0 mb)
Winds: calm
Visibility: 6 or more miles (10+ km)
Ceiling: ceiling and visibility are OK
Clouds: unknown
Weather: no significant weather observed at this time

METAR text: OSDI 180300Z 00000KT CAVOK M01/M02 Q1019
Conditions at: OSDI (DAMASCUS (CIV/MI, SY) observed 0300 UTC 18 February 2019
Temperature: -1.0°C (30°F)
Dewpoint: -2.0°C (28°F) [RH = 93%]
Pressure (altimeter): 30.09 inches Hg (1019.0 mb)
Winds: calm
Visibility: 6 or more miles (10+ km)
Ceiling: ceiling and visibility are OK
Clouds: unknown
Weather: no significant weather observed at this time

METAR text: OSDI 180100Z 34006KT 9999 FEW030 M00/M02 Q1019
Conditions at: OSDI (DAMASCUS (CIV/MI, SY) observed 0100 UTC 18 February 2019
Temperature: 0.0°C (32°F)
Dewpoint: -2.0°C (28°F) [RH = 86%]
Pressure (altimeter): 30.09 inches Hg (1019.0 mb)
Winds: from the NNW (340 degrees) at 7 MPH (6 knots; 3.1 m/s)
Visibility: 6 or more miles (10+ km)
Ceiling: at least 12,000 feet AGL
Clouds: few clouds at 3000 feet AGL
Weather: no significant weather observed at this time

METAR text: OSDI 180000Z 33006KT 9999 FEW030 M00/M02 Q1020
Conditions at: OSDI (DAMASCUS (CIV/MI, SY) observed 0000 UTC 18 February 2019
Temperature: 0.0°C (32°F)
Dewpoint: -2.0°C (28°F) [RH = 86%]
Pressure (altimeter): 30.12 inches Hg (1020.0 mb)
Winds: from the NNW (330 degrees) at 7 MPH (6 knots; 3.1 m/s)
Visibility: 6 or more miles (10+ km)
Ceiling: at least 12,000 feet AGL
Clouds: few clouds at 3000 feet AGL
Weather: no significant weather observed at this time

METAR text: OSDI 172200Z 21008KT 9999 SCT030 02/M00 Q1020
Conditions at: OSDI (DAMASCUS (CIV/MI, SY) observed 2200 UTC 17 February 2019
Temperature: 2.0°C (36°F)
Dewpoint: 0.0°C (32°F) [RH = 87%]
Pressure (altimeter): 30.12 inches Hg (1020.0 mb)
Winds: from the SSW (210 degrees) at 9 MPH (8 knots; 4.1 m/s)
Visibility: 6 or more miles (10+ km)
Ceiling: at least 12,000 feet AGL
Clouds: scattered clouds at 3000 feet AGL
Weather: no significant weather observed at this time

METAR text: OSDI 172100Z 24008KT 9999 SCT030 03/M00 Q1020
Conditions at: OSDI (DAMASCUS (CIV/MI, SY) observed 2100 UTC 17 February 2019
Temperature: 3.0°C (37°F)
Dewpoint: 0.0°C (32°F) [RH = 81%]
Pressure (altimeter): 30.12 inches Hg (1020.0 mb)
Winds: from the WSW (240 degrees) at 9 MPH (8 knots; 4.1 m/s)
Visibility: 6 or more miles (10+ km)
Ceiling: at least 12,000 feet AGL
Clouds: scattered clouds at 3000 feet AGL
Weather: no significant weather observed at this time

METAR text: OSDI 172000Z 22008KT 9999 SCT030 04/01 Q1020
Conditions at: OSDI (DAMASCUS (CIV/MI, SY) observed 2000 UTC 17 February 2019
Temperature: 4.0°C (39°F)
Dewpoint: 1.0°C (34°F) [RH = 81%]
Pressure (altimeter): 30.12 inches Hg (1020.0 mb)
Winds: from the SW (220 degrees) at 9 MPH (8 knots; 4.1 m/s)
Visibility: 6 or more miles (10+ km)
Ceiling: at least 12,000 feet AGL
Clouds: scattered clouds at 3000 feet AGL
Weather: no significant weather observed at this time

METAR text: OSDI 171900Z 00000KT 9999 SCT030 04/01 Q1020
Conditions at: OSDI (DAMASCUS (CIV/MI, SY) observed 1900 UTC 17 February 2019
Temperature: 4.0°C (39°F)
Dewpoint: 1.0°C (34°F) [RH = 81%]
Pressure (altimeter): 30.12 inches Hg (1020.0 mb)
Winds: calm
Visibility: 6 or more miles (10+ km)
Ceiling: at least 12,000 feet AGL
Clouds: scattered clouds at 3000 feet AGL
Weather: no significant weather observed at this time

METAR text: OSDI 171800Z 25010KT 9999 SCT030 07/02 Q1020
Conditions at: OSDI (DAMASCUS (CIV/MI, SY) observed 1800 UTC 17 February 2019
Temperature: 7.0°C (45°F)
Dewpoint: 2.0°C (36°F) [RH = 70%]
Pressure (altimeter): 30.12 inches Hg (1020.0 mb)
Winds: from the WSW (250 degrees) at 12 MPH (10 knots; 5.1 m/s)
Visibility: 6 or more miles (10+ km)
Ceiling: at least 12,000 feet AGL
Clouds: scattered clouds at 3000 feet AGL
Weather: no significant weather observed at this time

METAR text: OSDI 171700Z 25010KT 9999 SCT030 07/01 Q1020
Conditions at: OSDI (DAMASCUS (CIV/MI, SY) observed 1700 UTC 17 February 2019
Temperature: 7.0°C (45°F)
Dewpoint: 1.0°C (34°F) [RH = 66%]
Pressure (altimeter): 30.12 inches Hg (1020.0 mb)
Winds: from the WSW (250 degrees) at 12 MPH (10 knots; 5.1 m/s)
Visibility: 6 or more miles (10+ km)
Ceiling: at least 12,000 feet AGL
Clouds: scattered clouds at 3000 feet AGL
Weather: no significant weather observed at this time

METAR text: OSDI 171600Z 26010KT 9999 SCT030 08/02 Q1020
Conditions at: OSDI (DAMASCUS (CIV/MI, SY) observed 1600 UTC 17 February 2019
Temperature: 8.0°C (46°F)
Dewpoint: 2.0°C (36°F) [RH = 66%]
Pressure (altimeter): 30.12 inches Hg (1020.0 mb)
Winds: from the W (260 degrees) at 12 MPH (10 knots; 5.1 m/s)
Visibility: 6 or more miles (10+ km)
Ceiling: at least 12,000 feet AGL
Clouds: scattered clouds at 3000 feet AGL
Weather: no significant weather observed at this time

METAR text: OSDI 171500Z 25018KT 9999 SCT030 11/03 Q1020
Conditions at: OSDI (DAMASCUS (CIV/MI, SY) observed 1500 UTC 17 February 2019
Temperature: 11.0°C (52°F)
Dewpoint: 3.0°C (37°F) [RH = 58%]
Pressure (altimeter): 30.12 inches Hg (1020.0 mb)
Winds: from the WSW (250 degrees) at 21 MPH (18 knots; 9.3 m/s)
Visibility: 6 or more miles (10+ km)
Ceiling: at least 12,000 feet AGL
Clouds: scattered clouds at 3000 feet AGL
Weather: no significant weather observed at this time

METAR text: OSDI 171400Z 24016KT 9999 SCT030 13/01 Q1020
Conditions at: OSDI (DAMASCUS (CIV/MI, SY) observed 1400 UTC 17 February 2019
Temperature: 13.0°C (55°F)
Dewpoint: 1.0°C (34°F) [RH = 44%]
Pressure (altimeter): 30.12 inches Hg (1020.0 mb)
Winds: from the WSW (240 degrees) at 18 MPH (16 knots; 8.2 m/s)
Visibility: 6 or more miles (10+ km)
Ceiling: at least 12,000 feet AGL
Clouds: scattered clouds at 3000 feet AGL
Weather: no significant weather observed at this time

METAR text: OSDI 171300Z 24016KT 9999 SCT030 14/01 Q1019
Conditions at: OSDI (DAMASCUS (CIV/MI, SY) observed 1300 UTC 17 February 2019
Temperature: 14.0°C (57°F)
Dewpoint: 1.0°C (34°F) [RH = 41%]
Pressure (altimeter): 30.09 inches Hg (1019.0 mb)
Winds: from the WSW (240 degrees) at 18 MPH (16 knots; 8.2 m/s)
Visibility: 6 or more miles (10+ km)
Ceiling: at least 12,000 feet AGL
Clouds: scattered clouds at 3000 feet AGL
Weather: no significant weather observed at this time

METAR text: OSDI 171200Z 22016KT 9999 SCT030 14/01 Q1020
Conditions at: OSDI (DAMASCUS (CIV/MI, SY) observed 1200 UTC 17 February 2019
Temperature: 14.0°C (57°F)
Dewpoint: 1.0°C (34°F) [RH = 41%]
Pressure (altimeter): 30.12 inches Hg (1020.0 mb)
Winds: from the SW (220 degrees) at 18 MPH (16 knots; 8.2 m/s)
Visibility: 6 or more miles (10+ km)
Ceiling: at least 12,000 feet AGL
Clouds: scattered clouds at 3000 feet AGL
Weather: no significant weather observed at this time

METAR text: OSDI 171100Z 22012KT 9999 SCT030 13/05 Q1020
Conditions at: OSDI (DAMASCUS (CIV/MI, SY) observed 1100 UTC 17 February 2019
Temperature: 13.0°C (55°F)
Dewpoint: 5.0°C (41°F) [RH = 58%]
Pressure (altimeter): 30.12 inches Hg (1020.0 mb)
Winds: from the SW (220 degrees) at 14 MPH (12 knots; 6.2 m/s)
Visibility: 6 or more miles (10+ km)
Ceiling: at least 12,000 feet AGL
Clouds: scattered clouds at 3000 feet AGL
Weather: no significant weather observed at this time

METAR text: OSDI 171000Z 22012KT 9999 SCT030 12/05 Q1021
Conditions at: OSDI (DAMASCUS (CIV/MI, SY) observed 1000 UTC 17 February 2019
Temperature: 12.0°C (54°F)
Dewpoint: 5.0°C (41°F) [RH = 62%]
Pressure (altimeter): 30.15 inches Hg (1021.0 mb)
Winds: from the SW (220 degrees) at 14 MPH (12 knots; 6.2 m/s)
Visibility: 6 or more miles (10+ km)
Ceiling: at least 12,000 feet AGL
Clouds: scattered clouds at 3000 feet AGL
Weather: no significant weather observed at this time

METAR text: OSDI 170900Z 24012KT 9999 SCT030 11/04 Q1022
Conditions at: OSDI (DAMASCUS (CIV/MI, SY) observed 0900 UTC 17 February 2019
Temperature: 11.0°C (52°F)
Dewpoint: 4.0°C (39°F) [RH = 62%]
Pressure (altimeter): 30.18 inches Hg (1022.0 mb)
Winds: from the WSW (240 degrees) at 14 MPH (12 knots; 6.2 m/s)
Visibility: 6 or more miles (10+ km)
Ceiling: at least 12,000 feet AGL
Clouds: scattered clouds at 3000 feet AGL
Weather: no significant weather observed at this time

METAR text: OSDI 170800Z 24012KT 9999 SCT030 10/05 Q1022
Conditions at: OSDI (DAMASCUS (CIV/MI, SY) observed 0800 UTC 17 February 2019
Temperature: 10.0°C (50°F)
Dewpoint: 5.0°C (41°F) [RH = 71%]
Pressure (altimeter): 30.18 inches Hg (1022.0 mb)
Winds: from the WSW (240 degrees) at 14 MPH (12 knots; 6.2 m/s)
Visibility: 6 or more miles (10+ km)
Ceiling: at least 12,000 feet AGL
Clouds: scattered clouds at 3000 feet AGL
Weather: no significant weather observed at this time

METAR text: OSDI 170700Z 24011KT 9999 FEW030 08/05 Q1023
Conditions at: OSDI (DAMASCUS (CIV/MI, SY) observed 0700 UTC 17 February 2019
Temperature: 8.0°C (46°F)
Dewpoint: 5.0°C (41°F) [RH = 81%]
Pressure (altimeter): 30.21 inches Hg (1023.0 mb)
Winds: from the WSW (240 degrees) at 13 MPH (11 knots; 5.7 m/s)
Visibility: 6 or more miles (10+ km)
Ceiling: at least 12,000 feet AGL
Clouds: few clouds at 3000 feet AGL
Weather: no significant weather observed at this time

METAR text: OSDI 170600Z 24008KT 6000 05/04 Q1022
Conditions at: OSDI (DAMASCUS (CIV/MI, SY) observed 0600 UTC 17 February 2019
Temperature: 5.0°C (41°F)
Dewpoint: 4.0°C (39°F) [RH = 93%]
Pressure (altimeter): 30.18 inches Hg (1022.0 mb)
Winds: from the WSW (240 degrees) at 9 MPH (8 knots; 4.1 m/s)
Visibility: 4 miles ( 6 km)
Ceiling: unknown
Clouds: missing
Weather: no significant weather observed at this time

METAR text: OSDI 170500Z 23008KT 0200 R23/0200 FG 02/01 Q1021
Conditions at: OSDI (DAMASCUS (CIV/MI, SY) observed 0500 UTC 17 February 2019
Temperature: 2.0°C (36°F)
Dewpoint: 1.0°C (34°F) [RH = 93%]
Pressure (altimeter): 30.15 inches Hg (1021.0 mb)
Winds: from the SW (230 degrees) at 9 MPH (8 knots; 4.1 m/s)
Visibility: 0.12 miles (0.19 km)
Ceiling: unknown
Clouds: missing
Weather: FG  (fog)

METAR text: OSDI 170403Z 21007KT 0300 R23/0300 FG Q1021
Conditions at: OSDI (DAMASCUS (CIV/MI, SY) observed 0403 UTC 17 February 2019
Temperature: missing
Dewpoint: missing
Pressure (altimeter): 30.15 inches Hg (1021.0 mb)
Winds: from the SSW (210 degrees) at 8 MPH (7 knots; 3.6 m/s)
Visibility: 0.19 miles (0.31 km)
Ceiling: unknown
Clouds: missing
Weather: FG  (fog)

METAR text: OSDI 170400Z 20010KT 6000 FEW030 02/01 Q1021
Conditions at: OSDI (DAMASCUS (CIV/MI, SY) observed 0400 UTC 17 February 2019
Temperature: 2.0°C (36°F)
Dewpoint: 1.0°C (34°F) [RH = 93%]
Pressure (altimeter): 30.15 inches Hg (1021.0 mb)
Winds: from the SSW (200 degrees) at 12 MPH (10 knots; 5.1 m/s)
Visibility: 4 miles ( 6 km)
Ceiling: at least 12,000 feet AGL
Clouds: few clouds at 3000 feet AGL
Weather: no significant weather observed at this time

METAR text: OSDI 170300Z 20011KT 9999 FEW030 03/01 Q1021
Conditions at: OSDI (DAMASCUS (CIV/MI, SY) observed 0300 UTC 17 February 2019
Temperature: 3.0°C (37°F)
Dewpoint: 1.0°C (34°F) [RH = 87%]
Pressure (altimeter): 30.15 inches Hg (1021.0 mb)
Winds: from the SSW (200 degrees) at 13 MPH (11 knots; 5.7 m/s)
Visibility: 6 or more miles (10+ km)
Ceiling: at least 12,000 feet AGL
Clouds: few clouds at 3000 feet AGL
Weather: no significant weather observed at this time

METAR text: OSDI 170200Z 21007KT 9999 FEW030 03/01 Q1021
Conditions at: OSDI (DAMASCUS (CIV/MI, SY) observed 0200 UTC 17 February 2019
Temperature: 3.0°C (37°F)
Dewpoint: 1.0°C (34°F) [RH = 87%]
Pressure (altimeter): 30.15 inches Hg (1021.0 mb)
Winds: from the SSW (210 degrees) at 8 MPH (7 knots; 3.6 m/s)
Visibility: 6 or more miles (10+ km)
Ceiling: at least 12,000 feet AGL
Clouds: few clouds at 3000 feet AGL
Weather: no significant weather observed at this time

METAR text: OSDI 170100Z 20011KT 9999 FEW030 03/01 Q1021
Conditions at: OSDI (DAMASCUS (CIV/MI, SY) observed 0100 UTC 17 February 2019
Temperature: 3.0°C (37°F)
Dewpoint: 1.0°C (34°F) [RH = 87%]
Pressure (altimeter): 30.15 inches Hg (1021.0 mb)
Winds: from the SSW (200 degrees) at 13 MPH (11 knots; 5.7 m/s)
Visibility: 6 or more miles (10+ km)
Ceiling: at least 12,000 feet AGL
Clouds: few clouds at 3000 feet AGL
Weather: no significant weather observed at this time

METAR text: OSDI 170000Z 21010KT 9999 FEW030 SCT100 04/02 Q1021
Conditions at: OSDI (DAMASCUS (CIV/MI, SY) observed 0000 UTC 17 February 2019
Temperature: 4.0°C (39°F)
Dewpoint: 2.0°C (36°F) [RH = 87%]
Pressure (altimeter): 30.15 inches Hg (1021.0 mb)
Winds: from the SSW (210 degrees) at 12 MPH (10 knots; 5.1 m/s)
Visibility: 6 or more miles (10+ km)
Ceiling: at least 12,000 feet AGL
Clouds: few clouds at 3000 feet AGL
scattered clouds at 10000 feet AGL
Weather: no significant weather observed at this time

METAR text: OSDI 162300Z 20012KT 9999 FEW030 SCT100 03/01 Q1021
Conditions at: OSDI (DAMASCUS (CIV/MI, SY) observed 2300 UTC 16 February 2019
Temperature: 3.0°C (37°F)
Dewpoint: 1.0°C (34°F) [RH = 87%]
Pressure (altimeter): 30.15 inches Hg (1021.0 mb)
Winds: from the SSW (200 degrees) at 14 MPH (12 knots; 6.2 m/s)
Visibility: 6 or more miles (10+ km)
Ceiling: at least 12,000 feet AGL
Clouds: few clouds at 3000 feet AGL
scattered clouds at 10000 feet AGL
Weather: no significant weather observed at this time

METAR text: OSDI 162200Z 20009KT 9999 FEW030 SCT100 03/01 Q1021
Conditions at: OSDI (DAMASCUS (CIV/MI, SY) observed 2200 UTC 16 February 2019
Temperature: 3.0°C (37°F)
Dewpoint: 1.0°C (34°F) [RH = 87%]
Pressure (altimeter): 30.15 inches Hg (1021.0 mb)
Winds: from the SSW (200 degrees) at 10 MPH (9 knots; 4.6 m/s)
Visibility: 6 or more miles (10+ km)
Ceiling: at least 12,000 feet AGL
Clouds: few clouds at 3000 feet AGL
scattered clouds at 10000 feet AGL
Weather: no significant weather observed at this time

Forecast for: OSDI (DAMASCUS (CIV/MI, SY)
Text: TAF OSDI 1806/1912 VRB03KT 3000 BR
Forecast period: 0600 to 0800 UTC 18 February 2019
Forecast type: FROM: standard forecast or significant change
Winds: variable direction winds at 3 MPH (3 knots; 1.5 m/s)
Visibility: 1.86 miles (2.99 km)
Ceiling: unknown
Clouds: missing
Weather: BR  (mist)
Text: BECMG 1808/1810 22010KT 8000 FEW030 SCT100
Forecast period: 0800 UTC 18 February 2019 to 0000 UTC 19 February 2019
Forecast type: BECOMING: Conditions expected to become as follows by 1000 UTC 18 February 2019
Winds: from the SW (220 degrees) at 12 MPH (10 knots; 5.1 m/s)
Visibility: 5 miles (8 km)
Ceiling: at least 12,000 feet AGL
Clouds: few clouds at 3000 feet AGL
scattered clouds at 10000 feet AGL
Weather: BR  (mist)
Text: BECMG 1900/1902 VRB03KT 3000 BR
Forecast period: 0000 to 0800 UTC 19 February 2019
Forecast type: BECOMING: Conditions expected to become as follows by 0200 UTC 19 February 2019
Winds: variable direction winds at 3 MPH (3 knots; 1.5 m/s)
Visibility: 1.86 miles (2.99 km)
Ceiling: at least 12,000 feet AGL
Clouds: few clouds at 3000 feet AGL
scattered clouds at 10000 feet AGL
Weather: BR  (mist)
Text: PROB30
Forecast period: 0200 to 0600 UTC 19 February 2019
Forecast type: TEMPORARY: The following changes expected for less than half the time period
Visibility: 0.12 miles (0.19 km)
Ceiling: unknown
Clouds: missing
Weather: FG  (fog)
Text: TEMPO 1902/1906 0200 FG
Forecast period: 0800 to 1200 UTC 19 February 2019
Forecast type: BECOMING: Conditions expected to become as follows by 1000 UTC 19 February 2019
Winds: from the SSW (210 degrees) at 12 MPH (10 knots; 5.1 m/s)
Visibility: 5 miles (8 km)
Ceiling: at least 12,000 feet AGL
Clouds: few clouds at 3000 feet AGL
scattered clouds at 10000 feet AGL
Weather: BR  (mist)